createdAt,value
2022-12-07T00:01:14.337Z,98618.97
2022-12-07T00:03:42.125Z,98620.09
2022-12-07T00:06:10.165Z,98620.09
2022-12-07T00:08:36.775Z,98622.50
2022-12-07T00:11:12.507Z,98614.44
2022-12-07T00:13:39.802Z,98612.06
2022-12-07T00:16:11.351Z,98609.81
2022-12-07T00:18:38.824Z,98609.00
2022-12-07T00:21:06.959Z,98611.88
2022-12-07T00:23:34.326Z,98613.50
2022-12-07T00:26:13.079Z,98614.63
2022-12-07T00:28:39.595Z,98607.38
2022-12-07T00:31:13.616Z,98608.03
2022-12-07T00:33:40.160Z,98609.81
2022-12-07T00:36:09.405Z,98599.66
2022-12-07T00:38:37.340Z,98596.63
2022-12-07T00:41:06.948Z,98601.44
2022-12-07T00:43:34.277Z,98602.91
2022-12-07T00:46:00.832Z,98603.22
2022-12-07T00:48:27.360Z,98603.84
2022-12-07T00:50:53.743Z,98606.25
2022-12-07T00:53:20.452Z,98598.88
2022-12-07T00:55:47.292Z,98599.81
2022-12-07T00:58:14.348Z,98601.78
2022-12-07T01:00:42.645Z,98600.00
2022-12-07T01:03:11.258Z,98599.19
2022-12-07T01:05:37.741Z,98599.81
2022-12-07T01:08:05.091Z,98607.06
2022-12-07T01:10:32.511Z,98596.94
2022-12-07T01:12:59.577Z,98601.44
2022-12-07T01:15:27.218Z,98604.81
2022-12-07T01:17:56.048Z,98603.84
2022-12-07T01:20:22.765Z,98605.28
2022-12-07T01:22:49.799Z,98602.56
2022-12-07T01:25:16.305Z,98603.38
2022-12-07T01:28:00.714Z,98598.09
2022-12-07T01:30:39.458Z,98596.13
2022-12-07T01:33:09.633Z,98593.56
2022-12-07T01:35:42.171Z,98601.13
2022-12-07T01:38:11.820Z,98596.44
2022-12-07T01:40:46.982Z,98600.78
2022-12-07T01:43:31.981Z,98609.47
2022-12-07T01:46:06.320Z,98598.88
2022-12-07T01:48:41.414Z,98605.28
2022-12-07T01:51:18.094Z,98602.25
2022-12-07T01:56:33.600Z,98614.63
2022-12-07T01:59:03.484Z,98603.22
2022-12-07T02:01:32.030Z,98604.16
2022-12-07T02:04:00.806Z,98602.38
2022-12-07T02:06:28.243Z,98604.47
2022-12-07T02:08:57.592Z,98604.66
2022-12-07T02:11:24.951Z,98604.34
2022-12-07T02:13:54.626Z,98601.25
2022-12-07T02:16:47.837Z,98602.56
2022-12-07T02:19:48.780Z,98593.88
2022-12-07T02:23:10.092Z,98596.75
2022-12-07T02:26:01.746Z,98591.47
2022-12-07T02:28:31.969Z,98594.97
2022-12-07T02:31:13.752Z,98586.00
2022-12-07T02:33:52.637Z,98590.16
2022-12-07T02:36:50.748Z,98582.94
2022-12-07T02:39:26.130Z,98579.06
2022-12-07T02:41:59.528Z,98578.13
2022-12-07T02:44:29.688Z,98564.34
2022-12-07T02:47:02.890Z,98559.50
2022-12-07T02:49:34.397Z,98552.75
2022-12-07T02:52:01.543Z,98550.03
2022-12-07T02:54:30.770Z,98549.06
2022-12-07T02:57:27.001Z,98551.16
2022-12-07T03:00:03.470Z,98551.63
2022-12-07T03:03:23.614Z,98553.72
2022-12-07T03:05:59.824Z,98558.69
2022-12-07T03:08:32.343Z,98546.00
2022-12-07T03:11:27.130Z,98551.81
2022-12-07T03:14:20.185Z,98545.38
2022-12-07T03:17:06.397Z,98542.78
2022-12-07T03:19:35.791Z,98547.13
2022-12-07T03:22:08.751Z,98554.38
2022-12-07T03:24:50.470Z,98561.25
2022-12-07T03:27:23.453Z,98551.16
2022-12-07T12:35:33.590Z,98456.97
2022-12-07T12:38:31.115Z,98455.91
2022-12-07T12:40:58.582Z,98455.75
2022-12-07T12:43:50.104Z,98448.66
2022-12-07T12:46:34.743Z,98451.03
2022-12-07T12:49:16.396Z,98449.66
2022-12-07T12:52:12.258Z,98455.03
2022-12-07T12:54:38.921Z,98452.28
2022-12-07T12:57:28.409Z,98452.78
2022-12-07T12:59:54.771Z,98449.72
2022-12-07T13:02:33.999Z,98447.53
2022-12-07T13:05:04.832Z,98449.59
2022-12-07T13:07:47.722Z,98437.63
2022-12-07T13:10:33.372Z,98437.16
2022-12-07T13:13:11.967Z,98440.66
2022-12-07T13:15:55.347Z,98432.00
2022-12-07T13:18:31.473Z,98436.19
2022-12-07T13:21:10.041Z,98432.69
2022-12-07T13:23:56.436Z,98439.00
2022-12-07T13:26:33.204Z,98435.81
2022-12-07T13:29:14.048Z,98439.00
2022-12-07T13:31:48.661Z,98437.56
2022-12-07T13:34:53.833Z,98435.69
2022-12-07T13:37:29.719Z,98436.19
2022-12-07T13:40:00.642Z,98436.34
2022-12-07T13:42:34.240Z,98443.06
2022-12-07T13:45:18.029Z,98422.53
2022-12-07T13:47:51.964Z,98440.22
2022-12-07T13:50:25.396Z,98430.69
2022-12-07T13:52:56.719Z,98430.78
2022-12-07T13:55:23.738Z,98428.19
2022-12-07T13:57:54.476Z,98431.19
2022-12-07T14:00:24.637Z,98430.31
2022-12-07T14:03:13.836Z,98426.13
2022-12-07T14:05:42.797Z,98437.84
2022-12-07T14:08:12.238Z,98435.56
2022-12-07T14:10:55.601Z,98424.63
2022-12-07T14:13:38.916Z,98424.09
2022-12-07T14:16:28.747Z,98434.78
2022-12-07T14:19:00.014Z,98427.13
2022-12-07T14:21:29.067Z,98423.47
2022-12-07T14:24:20.197Z,98428.81
2022-12-07T14:26:48.831Z,98421.75
2022-12-07T14:29:27.954Z,98415.25
2022-12-07T14:31:56.173Z,98422.53
2022-12-07T14:34:24.162Z,98421.41
2022-12-07T14:36:50.938Z,98421.84
2022-12-07T14:39:17.358Z,98425.81
2022-12-07T14:41:52.952Z,98420.81
2022-12-07T14:44:23.930Z,98426.91
2022-12-07T14:49:39.405Z,98422.09
2022-12-07T14:54:56.829Z,98415.72
2022-12-07T14:57:24.260Z,98413.63
2022-12-07T14:59:50.832Z,98410.78
2022-12-07T15:02:18.058Z,98411.47
2022-12-07T15:04:44.766Z,98414.84
2022-12-07T15:07:20.876Z,98404.59
2022-12-07T15:09:48.196Z,98410.22
2022-12-07T15:12:14.738Z,98404.88
2022-12-07T15:14:41.241Z,98403.81
2022-12-07T15:17:18.113Z,98405.38
2022-12-07T15:19:49.819Z,98411.28
2022-12-07T15:22:16.208Z,98407.81
2022-12-07T15:24:42.666Z,98413.00
2022-12-07T15:27:09.105Z,98415.72
2022-12-07T15:29:35.566Z,98412.22
2022-12-07T15:32:02.070Z,98413.69
2022-12-07T15:34:36.164Z,98414.50
2022-12-07T15:37:04.584Z,98404.78
2022-12-07T15:39:30.968Z,98406.88
2022-12-07T15:41:57.379Z,98412.50
2022-12-07T15:44:42.401Z,98405.16
2022-12-07T15:47:08.803Z,98403.81
2022-12-07T15:49:35.697Z,98397.03
2022-12-07T15:52:02.140Z,98396.75
2022-12-07T15:54:30.097Z,98398.16
2022-12-07T15:56:57.393Z,98393.38
2022-12-07T15:59:24.161Z,98392.09
2022-12-07T16:01:50.676Z,98390.47
2022-12-07T16:04:17.242Z,98391.59
2022-12-07T16:06:43.746Z,98388.84
2022-12-07T16:09:10.290Z,98395.44
2022-12-07T16:11:36.822Z,98390.31
2022-12-07T16:14:03.404Z,98385.34
2022-12-07T16:16:30.293Z,98390.94
2022-12-07T16:18:56.797Z,98390.78
2022-12-07T16:21:25.315Z,98396.56
2022-12-07T16:23:52.651Z,98388.53
2022-12-07T16:26:21.524Z,98386.06
2022-12-07T16:28:52.220Z,98387.84
2022-12-07T16:31:21.825Z,98382.56
2022-12-07T16:33:48.736Z,98386.41
2022-12-07T16:36:28.916Z,98385.09
2022-12-07T16:39:04.225Z,98387.66
2022-12-07T16:41:30.921Z,98379.72
2022-12-07T16:43:57.419Z,98390.59
2022-12-07T16:46:23.945Z,98382.28
2022-12-07T16:48:50.429Z,98387.38
2022-12-07T16:51:16.799Z,98387.03
2022-12-07T16:53:43.286Z,98381.91
2022-12-07T16:56:15.285Z,98387.47
2022-12-07T16:58:43.522Z,98372.81
2022-12-07T17:01:18.812Z,98370.91
2022-12-07T17:03:46.150Z,98372.66
2022-12-07T17:06:19.055Z,98366.88
2022-12-07T17:08:45.642Z,98372.69
2022-12-07T17:11:36.375Z,98372.84
2022-12-07T17:14:21.508Z,98369.03
2022-12-07T17:16:48.077Z,98370.31
2022-12-07T17:19:16.654Z,98372.59
2022-12-07T17:21:44.045Z,98367.16
2022-12-07T17:24:12.999Z,98365.44
2022-12-07T17:26:40.150Z,98360.91
2022-12-07T17:29:09.357Z,98347.50
2022-12-07T17:31:36.321Z,98350.53
2022-12-07T17:34:02.753Z,98352.41
2022-12-07T17:36:31.849Z,98369.50
2022-12-07T17:38:58.600Z,98355.50
2022-12-07T17:41:56.817Z,98354.41
2022-12-07T17:44:23.747Z,98358.72
2022-12-07T17:46:55.390Z,98356.78
2022-12-07T17:49:22.096Z,98359.69
2022-12-07T17:52:07.233Z,98352.47
2022-12-07T17:54:33.742Z,98353.25
2022-12-07T17:57:00.129Z,98345.41
2022-12-07T17:59:26.546Z,98342.50
2022-12-07T18:01:53.448Z,98342.59
2022-12-07T18:04:20.234Z,98334.72
2022-12-07T18:06:51.751Z,98342.59
2022-12-07T18:09:18.948Z,98341.69
2022-12-07T18:11:45.618Z,98340.56
2022-12-07T18:14:12.356Z,98336.06
2022-12-07T18:16:38.808Z,98336.84
2022-12-07T18:19:07.723Z,98334.44
2022-12-07T18:21:34.495Z,98338.78
2022-12-07T18:24:02.847Z,98339.19
2022-12-07T18:26:31.596Z,98339.53
2022-12-07T18:29:01.189Z,98342.88
2022-12-07T18:31:29.214Z,98345.78
2022-12-07T18:33:56.834Z,98343.09
2022-12-07T18:36:24.202Z,98344.56
2022-12-07T18:38:51.138Z,98343.25
2022-12-07T18:41:18.061Z,98354.38
2022-12-07T18:43:44.810Z,98359.84
2022-12-07T18:46:16.979Z,98358.41
2022-12-07T18:48:43.578Z,98354.56
2022-12-07T18:51:12.657Z,98355.34
2022-12-07T18:53:39.668Z,98353.25
2022-12-07T18:56:22.498Z,98347.16
2022-12-07T18:59:13.086Z,98350.84
2022-12-07T19:01:41.293Z,98350.66
2022-12-07T19:04:08.600Z,98355.19
2022-12-07T19:06:35.090Z,98357.44
2022-12-07T19:09:01.673Z,98355.47
2022-12-07T19:11:51.163Z,98353.22
2022-12-07T19:14:24.875Z,98358.88
2022-12-07T19:16:54.202Z,98345.84
2022-12-07T19:19:23.070Z,98353.22
2022-12-07T19:21:50.453Z,98347.00
2022-12-07T19:24:23.304Z,98346.38
2022-12-07T19:26:51.245Z,98345.50
2022-12-07T19:29:17.660Z,98345.69
2022-12-07T19:31:44.190Z,98332.84
2022-12-07T19:34:12.915Z,98342.50
2022-12-07T19:36:39.880Z,98342.50
2022-12-07T19:39:11.346Z,98341.19
2022-12-07T19:41:43.462Z,98339.22
2022-12-07T19:44:15.687Z,98333.59
2022-12-07T19:46:46.392Z,98332.66
2022-12-07T19:49:16.201Z,98327.22
2022-12-07T19:51:44.980Z,98329.78
2022-12-07T19:54:14.928Z,98326.72
2022-12-07T19:56:43.717Z,98327.84
2022-12-07T19:59:11.465Z,98327.22
2022-12-07T20:01:40.742Z,98325.91
2022-12-07T20:04:10.698Z,98328.59
2022-12-07T20:06:37.192Z,98321.22
2022-12-07T20:09:03.938Z,98328.59
2022-12-07T20:11:48.850Z,98318.84
2022-12-07T20:14:15.610Z,98314.94
2022-12-07T20:16:44.272Z,98316.09
2022-12-07T20:19:11.170Z,98310.59
2022-12-07T20:21:38.535Z,98310.94
2022-12-07T20:24:07.394Z,98309.47
2022-12-07T20:26:34.590Z,98306.22
2022-12-07T20:29:07.718Z,98304.91
2022-12-07T20:31:36.070Z,98294.84
2022-12-07T20:34:03.534Z,98296.91
2022-12-07T20:36:33.202Z,98297.25
2022-12-07T20:39:01.699Z,98300.25
2022-12-07T20:41:47.630Z,98302.28
2022-12-07T20:44:15.266Z,98298.28
2022-12-07T20:46:42.062Z,98300.25
2022-12-07T20:49:10.094Z,98303.50
2022-12-07T20:51:36.921Z,98296.34
2022-12-07T20:54:03.591Z,98300.19
2022-12-07T20:56:32.329Z,98304.56
2022-12-07T20:59:01.620Z,98301.50
2022-12-07T21:01:29.618Z,98309.41
2022-12-07T21:03:58.010Z,98298.00
2022-12-07T21:06:25.561Z,98303.78
2022-12-07T21:08:54.386Z,98297.34
2022-12-07T21:11:22.477Z,98297.63
2022-12-07T21:13:49.318Z,98292.38
2022-12-07T21:16:25.290Z,98292.19
2022-12-07T21:18:52.330Z,98289.97
2022-12-07T21:21:20.069Z,98288.06
2022-12-07T21:23:48.245Z,98289.84
2022-12-07T21:26:17.707Z,98285.53
2022-12-07T21:28:44.249Z,98270.91
2022-12-07T21:31:13.571Z,98276.00
2022-12-07T21:33:43.733Z,98283.84
2022-12-07T21:36:12.601Z,98282.19
2022-12-07T21:38:39.065Z,98280.03
2022-12-07T21:41:17.500Z,98282.94
2022-12-07T21:43:44.712Z,98282.25
2022-12-07T21:46:12.147Z,98281.34
2022-12-07T21:48:39.361Z,98275.19
2022-12-07T21:51:14.254Z,98283.03
2022-12-07T21:53:42.433Z,98269.69
2022-12-07T21:56:30.360Z,98279.63
2022-12-07T21:59:02.821Z,98275.97
2022-12-07T22:01:31.004Z,98275.88
2022-12-07T22:03:57.566Z,98274.59
2022-12-07T22:06:26.316Z,98267.50
2022-12-07T22:08:54.230Z,98269.44
2022-12-07T22:11:20.879Z,98272.03
2022-12-07T22:14:10.388Z,98269.13
2022-12-07T22:16:38.602Z,98272.78
2022-12-07T22:19:06.017Z,98262.81
2022-12-07T22:21:32.608Z,98263.25
2022-12-07T22:23:59.051Z,98263.88
2022-12-07T22:26:25.569Z,98261.00
2022-12-07T22:28:51.977Z,98256.31
2022-12-07T22:31:20.065Z,98257.16
2022-12-07T22:33:46.803Z,98253.13
2022-12-07T22:36:13.610Z,98247.47
2022-12-07T22:38:40.558Z,98243.09
2022-12-07T22:41:29.210Z,98246.38
2022-12-07T22:43:56.528Z,98250.84
2022-12-07T22:46:24.188Z,98235.00
2022-12-07T22:48:51.237Z,98236.78
2022-12-07T22:51:22.265Z,98234.41
2022-12-07T22:53:48.969Z,98217.91
2022-12-07T22:56:15.363Z,98218.34
2022-12-07T22:58:41.840Z,98210.47
2022-12-07T23:01:13.121Z,98218.69
2022-12-07T23:03:39.848Z,98216.75
2022-12-07T23:06:09.325Z,98218.69
2022-12-07T23:08:36.739Z,98216.81
2022-12-07T23:11:04.208Z,98217.16
2022-12-07T23:13:35.507Z,98208.31
2022-12-07T23:16:13.889Z,98216.00
2022-12-07T23:18:42.127Z,98212.00
2022-12-07T23:21:08.946Z,98204.75
2022-12-07T23:23:35.409Z,98204.25
2022-12-07T23:26:07.230Z,98206.97
2022-12-07T23:28:34.156Z,98208.25
2022-12-07T23:31:26.961Z,98200.81
2022-12-07T23:33:53.465Z,98202.84
2022-12-07T23:36:22.891Z,98197.91
2022-12-07T23:38:50.994Z,98206.06
2022-12-07T23:41:19.382Z,98200.47
2022-12-07T23:43:46.347Z,98194.53
2022-12-07T23:46:18.706Z,98194.84
2022-12-07T23:48:46.518Z,98193.47
2022-12-07T23:51:13.495Z,98191.25
2022-12-07T23:53:42.640Z,98190.16
2022-12-07T23:56:14.671Z,98185.66
2022-12-07T23:58:41.304Z,98185.81
